Crystal Falls, MI

8:29 PM CST on December 27, 2014 (GMT -0600)
Ford | Change Station
CLOSE
Current Station
Airport
Location: Iron Mountain,
Elevation: 1181 ft
Nearby Weather Stations

Elev 1181 ft 45.82 °N, 88.11 °W | Updated 35 minutes ago

Clear
Clear
28 °F
Feels Like 21 °F
N
7
Wind Variable Wind from West
Gusts 11 mph

Today
High -- | Low -- °F
--% Chance of Precip.
Yesterday
High -- | Low -- °F
Precip. -- in
7:35 AM 4:14 PM
Waxing Crescent, 42% visible
Pressure 29.99 in
Visibility 10.0 miles
Clouds
Windchill 21 °F
Dew Point 23 °F
Humidity 81%
Rainfall 0.20 in
Snow Depth Not available.
UV Not available.
Pollen .10 out of 12
Air Quality Not available.
Flu Activity Not available.
METAR KIMT 280154Z AUTO 27006KT 10SM M02/M05 A2993 RMK AO2 SNE04 SLP154 P0000 T10221050 $

More Conditions Fewer Conditions

Pressure 29.99 in
Visibility 10.0 miles
Clouds
Windchill 21 °F
Dew Point 23 °F
Humidity 81%
Rainfall 0.20 in
Snow Depth Not available.
UV Not available.
Pollen .10 out of 12
Air Quality Not available.
Flu Activity Not available.
METAR KIMT 280154Z AUTO 27006KT 10SM M02/M05 A2993 RMK AO2 SNE04 SLP154 P0000 T10221050 $

More Conditions Fewer Conditions

10-Day Weather Forecast

Almanac

Astronomy

Dec. 27, 2014 Rise Set
Actual Time
Civil Twilight
Nautical Twilight
Astronomical Twilight
Moon
Length of Visible Light
Length of Day
Tomorrow will be .
, % of the Moon is Illuminated

Today's Extremes

State Highs State Lows

Community

WunderPhotos

Upload Photos

1,781,142 photos uploaded!

WunderBlogs® & News

Nearby

Air Quality

  Air Quality AQ Index Pollutant
Not available.

Snow Depth

Station Depth Elevation

Earthquake Activity

City Distance Mag. Time & Date
Minimum magnitude displayed is 2.5.

Coastal Water Temperatures

Place Temperature

Nearby Weather Stations